createdAt,value
2018-03-16T00:00:15.055Z,10.10
2018-03-16T00:02:44.065Z,10.10
2018-03-16T00:05:12.324Z,10.10
2018-03-16T00:07:40.637Z,10.10
2018-03-16T00:10:08.891Z,10.10
2018-03-16T00:12:37.141Z,10.10
2018-03-16T00:15:05.418Z,10.10
2018-03-16T00:17:33.674Z,10.10
2018-03-16T00:20:01.930Z,10.10
2018-03-16T00:22:45.566Z,10.10
2018-03-16T00:25:13.796Z,10.10
2018-03-16T00:27:42.046Z,10.10
2018-03-16T00:30:10.317Z,10.00
2018-03-16T00:32:38.570Z,10.00
2018-03-16T00:35:06.822Z,10.00
2018-03-16T00:37:35.097Z,10.00
2018-03-16T00:40:03.349Z,9.90
2018-03-16T00:42:32.209Z,9.90
2018-03-16T00:45:00.714Z,9.90
2018-03-16T00:47:28.956Z,9.90
2018-03-16T00:49:57.197Z,9.90
2018-03-16T00:52:25.474Z,9.90
2018-03-16T00:54:53.717Z,9.90
2018-03-16T00:57:21.957Z,9.90
2018-03-16T00:59:50.234Z,10.00
2018-03-16T01:02:18.481Z,10.00
2018-03-16T01:04:46.725Z,10.00
2018-03-16T01:07:16.086Z,10.00
2018-03-16T01:09:44.333Z,10.00
2018-03-16T01:12:12.625Z,10.00
2018-03-16T01:14:42.086Z,10.00
2018-03-16T01:17:11.097Z,9.90
2018-03-16T01:19:39.343Z,9.90
2018-03-16T01:22:07.609Z,9.90
2018-03-16T01:24:35.858Z,9.90
2018-03-16T01:27:04.109Z,10.00
2018-03-16T01:29:32.718Z,10.00
2018-03-16T01:32:00.969Z,9.90
2018-03-16T01:34:29.209Z,9.90
2018-03-16T01:36:57.474Z,9.90
2018-03-16T01:39:25.725Z,9.90
2018-03-16T01:41:53.996Z,9.90
2018-03-16T01:44:22.665Z,9.90
2018-03-16T01:46:50.912Z,9.90
2018-03-16T01:49:19.157Z,9.90
2018-03-16T01:51:47.637Z,9.90
2018-03-16T01:54:15.876Z,9.90
2018-03-16T01:56:44.130Z,9.90
2018-03-16T01:59:12.602Z,9.90
2018-03-16T02:01:41.616Z,9.80
2018-03-16T02:04:10.621Z,9.70
2018-03-16T02:06:38.898Z,9.70
2018-03-16T02:09:07.145Z,9.70
2018-03-16T02:11:35.387Z,9.60
2018-03-16T02:14:03.849Z,9.50
2018-03-16T02:16:32.095Z,9.50
2018-03-16T02:19:00.422Z,9.40
2018-03-16T02:21:28.698Z,9.40
2018-03-16T02:23:56.921Z,9.40
2018-03-16T02:26:25.358Z,9.40
2018-03-16T02:28:53.634Z,9.50
2018-03-16T02:31:21.877Z,9.50
2018-03-16T02:33:50.128Z,9.50
2018-03-16T02:36:18.650Z,9.50
2018-03-16T02:38:46.902Z,9.40
2018-03-16T02:41:15.142Z,9.40
2018-03-16T02:43:43.417Z,9.40
2018-03-16T02:46:11.834Z,9.40
2018-03-16T02:48:40.078Z,9.40
2018-03-16T02:51:08.678Z,9.30
2018-03-16T02:53:36.922Z,9.30
2018-03-16T02:56:05.309Z,9.20
2018-03-16T02:58:33.801Z,9.20
2018-03-16T03:01:02.814Z,9.20
2018-03-16T03:03:31.060Z,9.20
2018-03-16T03:05:59.606Z,9.20
2018-03-16T03:08:27.850Z,9.20
2018-03-16T03:10:56.892Z,9.10
2018-03-16T03:13:25.197Z,9.10
2018-03-16T03:15:53.441Z,9.10
2018-03-16T03:18:21.689Z,9.10
2018-03-16T03:20:50.167Z,9.10
2018-03-16T03:23:18.400Z,9.10
2018-03-16T03:25:46.645Z,9.10
2018-03-16T03:28:14.909Z,9.10
2018-03-16T03:30:43.158Z,9.10
2018-03-16T03:33:11.397Z,9.20
2018-03-16T03:35:39.664Z,9.20
2018-03-16T03:38:07.908Z,9.20
2018-03-16T03:40:36.148Z,9.20
2018-03-16T03:43:04.814Z,9.30
2018-03-16T03:45:33.061Z,9.40
2018-03-16T03:48:01.913Z,9.30
2018-03-16T03:50:31.922Z,9.20
2018-03-16T03:53:00.170Z,9.20
2018-03-16T03:55:28.418Z,9.20
2018-03-16T03:57:56.685Z,9.20
2018-03-16T04:00:24.924Z,9.30
2018-03-16T04:02:53.163Z,9.40
2018-03-16T04:05:22.226Z,9.40
2018-03-16T04:07:50.479Z,9.30
2018-03-16T04:10:19.485Z,9.20
2018-03-16T04:12:47.753Z,9.20
2018-03-16T04:15:15.998Z,9.20
2018-03-16T04:17:44.241Z,9.20
2018-03-16T04:20:12.505Z,9.20
2018-03-16T04:22:40.761Z,9.20
2018-03-16T04:25:09.765Z,9.30
2018-03-16T04:27:38.473Z,9.30
2018-03-16T04:30:06.726Z,9.30
2018-03-16T04:32:34.981Z,9.40
2018-03-16T04:35:03.233Z,9.50
2018-03-16T04:37:31.481Z,9.40
2018-03-16T04:39:59.726Z,9.30
2018-03-16T04:42:27.993Z,9.30
2018-03-16T04:44:56.241Z,9.20
2018-03-16T04:47:24.486Z,9.10
2018-03-16T04:49:53.022Z,9.00
2018-03-16T04:52:21.265Z,9.00
2018-03-16T04:54:49.504Z,9.10
2018-03-16T04:57:17.785Z,9.00
2018-03-16T04:59:46.024Z,9.00
2018-03-16T05:02:14.269Z,9.00
2018-03-16T05:04:42.545Z,8.90
2018-03-16T05:07:10.777Z,8.90
2018-03-16T05:09:39.030Z,8.90
2018-03-16T05:12:07.462Z,8.90
2018-03-16T05:14:35.705Z,8.80
2018-03-16T05:17:04.139Z,8.70
2018-03-16T05:19:32.413Z,8.70
2018-03-16T05:22:00.657Z,8.70
2018-03-16T05:24:28.902Z,8.70
2018-03-16T05:26:57.169Z,8.70
2018-03-16T05:29:26.186Z,8.70
2018-03-16T05:31:54.440Z,8.70
2018-03-16T05:34:23.185Z,8.70
2018-03-16T05:36:51.429Z,8.80
2018-03-16T05:39:19.686Z,8.70
2018-03-16T05:41:47.948Z,8.70
2018-03-16T05:44:16.194Z,8.70
2018-03-16T05:46:44.437Z,8.60
2018-03-16T05:49:12.702Z,8.60
2018-03-16T05:51:41.505Z,8.60
2018-03-16T05:54:09.745Z,8.60
2018-03-16T05:56:38.286Z,8.70
2018-03-16T05:59:06.543Z,8.70
2018-03-16T06:01:34.782Z,8.80
2018-03-16T06:04:03.985Z,8.90
2018-03-16T06:06:32.998Z,8.90
2018-03-16T06:09:02.021Z,9.00
2018-03-16T06:11:30.331Z,9.00
2018-03-16T06:13:58.537Z,9.00
2018-03-16T06:16:26.783Z,9.00
2018-03-16T06:18:55.233Z,9.00
2018-03-16T06:21:23.687Z,9.00
2018-03-16T06:23:51.988Z,9.00
2018-03-16T06:26:20.245Z,8.90
2018-03-16T06:28:48.493Z,9.00
2018-03-16T06:31:16.733Z,9.00
2018-03-16T06:33:45.001Z,9.00
2018-03-16T06:36:13.257Z,9.00
2018-03-16T06:38:41.581Z,9.10
2018-03-16T06:41:10.038Z,9.20
2018-03-16T06:43:38.285Z,9.40
2018-03-16T06:46:06.535Z,9.50
2018-03-16T06:48:34.797Z,9.70
2018-03-16T06:51:03.049Z,9.80
2018-03-16T06:53:31.594Z,10.00
2018-03-16T06:56:00.631Z,10.10
2018-03-16T06:58:28.958Z,10.10
2018-03-16T07:00:57.175Z,10.10
2018-03-16T07:03:26.065Z,10.10
2018-03-16T07:05:54.318Z,10.00
2018-03-16T07:08:22.569Z,9.80
2018-03-16T07:10:50.849Z,9.80
2018-03-16T07:13:19.850Z,9.70
2018-03-16T07:15:48.862Z,9.60
2018-03-16T07:18:17.129Z,9.60
2018-03-16T07:20:45.376Z,9.60
2018-03-16T07:23:13.667Z,9.60
2018-03-16T07:25:42.089Z,9.70
2018-03-16T07:28:10.417Z,9.60
2018-03-16T07:30:39.430Z,9.60
2018-03-16T07:33:08.726Z,9.60
2018-03-16T07:35:37.734Z,9.60
2018-03-16T07:38:05.981Z,9.60
2018-03-16T07:40:34.250Z,9.60
2018-03-16T07:43:03.261Z,9.70
2018-03-16T07:45:37.345Z,9.70
2018-03-16T07:48:06.317Z,9.70
2018-03-16T07:50:34.562Z,9.70
2018-03-16T07:53:02.849Z,9.80
2018-03-16T07:55:31.512Z,9.80
2018-03-16T07:58:01.259Z,9.90
2018-03-16T08:00:29.556Z,9.90
2018-03-16T08:02:57.836Z,9.90
2018-03-16T08:05:26.077Z,9.90
2018-03-16T08:07:54.986Z,10.00
2018-03-16T08:10:23.274Z,10.00
2018-03-16T08:12:51.681Z,10.10
2018-03-16T08:15:20.773Z,10.20
2018-03-16T08:17:48.989Z,10.20
2018-03-16T08:20:17.249Z,10.20
2018-03-16T08:22:45.521Z,10.30
2018-03-16T08:25:14.537Z,10.40
2018-03-16T08:27:43.406Z,10.40
2018-03-16T08:30:11.941Z,10.40
2018-03-16T08:32:40.228Z,10.60
2018-03-16T08:35:08.573Z,10.70
2018-03-16T08:37:36.849Z,10.80
2018-03-16T08:40:05.102Z,10.90
2018-03-16T08:42:34.725Z,11.10
2018-03-16T08:45:03.770Z,11.10
2018-03-16T08:47:32.033Z,11.10
2018-03-16T08:50:00.426Z,11.10
2018-03-16T08:52:28.880Z,11.10
2018-03-16T08:54:57.133Z,11.00
2018-03-16T08:57:27.088Z,11.00
2018-03-16T08:59:55.353Z,10.90
2018-03-16T09:02:24.574Z,10.90
2018-03-16T09:04:52.825Z,11.00
2018-03-16T09:07:21.102Z,11.00
2018-03-16T09:09:49.412Z,11.00
2018-03-16T09:12:18.071Z,11.10
2018-03-16T09:14:46.445Z,11.20
2018-03-16T09:17:14.689Z,11.20
2018-03-16T09:19:43.190Z,11.30
2018-03-16T09:22:11.465Z,11.30
2018-03-16T09:24:39.733Z,11.30
2018-03-16T09:27:08.002Z,11.30
2018-03-16T09:29:38.225Z,11.30
2018-03-16T09:32:06.477Z,11.30
2018-03-16T09:34:34.832Z,11.30
2018-03-16T09:37:03.399Z,11.30
2018-03-16T09:39:31.697Z,11.30
2018-03-16T09:41:59.930Z,11.40
2018-03-16T09:44:28.206Z,11.40
2018-03-16T09:46:56.481Z,11.20
2018-03-16T09:49:24.745Z,11.10
2018-03-16T09:51:53.054Z,11.10
2018-03-16T09:54:21.321Z,11.20
2018-03-16T09:56:49.570Z,11.20
2018-03-16T09:59:18.593Z,11.30
2018-03-16T10:01:46.876Z,11.40
2018-03-16T10:04:15.145Z,11.40
2018-03-16T10:06:43.412Z,11.40
2018-03-16T10:09:11.661Z,11.50
2018-03-16T10:11:40.685Z,11.60
2018-03-16T10:14:08.963Z,11.60
2018-03-16T10:16:37.462Z,11.50
2018-03-16T10:19:05.725Z,11.50
2018-03-16T10:21:34.217Z,11.50
2018-03-16T10:24:02.458Z,11.50
2018-03-16T10:26:30.698Z,11.60
2018-03-16T10:28:59.089Z,11.60
2018-03-16T10:31:27.357Z,11.90
2018-03-16T10:33:55.601Z,12.00
2018-03-16T10:36:23.866Z,12.10
2018-03-16T10:38:52.117Z,12.20
2018-03-16T10:41:20.361Z,12.30
2018-03-16T10:43:49.025Z,12.60
2018-03-16T10:46:17.281Z,12.80
2018-03-16T10:48:45.522Z,12.90
2018-03-16T10:51:13.797Z,12.70
2018-03-16T10:53:42.801Z,12.60
2018-03-16T10:56:11.821Z,12.60
2018-03-16T10:58:40.094Z,12.60
2018-03-16T11:01:15.438Z,12.70
2018-03-16T11:03:49.426Z,12.70
2018-03-16T11:06:23.357Z,12.60
2018-03-16T11:08:51.637Z,12.70
2018-03-16T11:11:19.881Z,12.90
2018-03-16T11:13:48.898Z,13.10
2018-03-16T11:16:17.152Z,13.00
2018-03-16T11:18:45.400Z,13.00
2018-03-16T11:21:13.638Z,12.90
2018-03-16T11:23:42.129Z,12.70
2018-03-16T11:26:10.369Z,12.60
2018-03-16T11:28:38.608Z,12.60
2018-03-16T11:31:06.880Z,12.60
2018-03-16T11:33:35.117Z,12.40
2018-03-16T11:36:03.362Z,12.30
2018-03-16T11:38:32.390Z,12.30
2018-03-16T11:41:00.734Z,12.30
2018-03-16T11:43:30.929Z,13.00
2018-03-16T11:45:59.693Z,13.00
2018-03-16T11:48:27.930Z,13.30
2018-03-16T11:50:56.173Z,13.30
2018-03-16T11:53:24.429Z,13.30
2018-03-16T11:55:52.673Z,13.20
2018-03-16T11:58:20.913Z,13.10
2018-03-16T12:00:49.178Z,12.90
2018-03-16T12:03:17.693Z,12.80
2018-03-16T12:05:46.717Z,12.90
2018-03-16T12:08:15.413Z,12.90
2018-03-16T12:10:43.653Z,12.80
2018-03-16T12:13:11.895Z,12.70
2018-03-16T12:15:40.156Z,12.70
2018-03-16T12:18:08.390Z,12.70
2018-03-16T12:20:36.625Z,12.80
2018-03-16T12:23:04.899Z,12.80
2018-03-16T12:25:33.142Z,12.90
2018-03-16T12:28:01.390Z,13.00
2018-03-16T12:30:30.153Z,12.90
2018-03-16T12:32:58.408Z,13.00
2018-03-16T12:35:26.637Z,13.00
2018-03-16T12:37:54.897Z,13.00
2018-03-16T12:40:23.137Z,12.90
2018-03-16T12:42:51.410Z,12.80
2018-03-16T12:45:21.473Z,12.80
2018-03-16T12:47:49.717Z,12.80
2018-03-16T12:50:17.949Z,12.90
2018-03-16T12:52:46.497Z,13.00
2018-03-16T12:55:15.564Z,12.80
2018-03-16T12:57:43.801Z,12.80
2018-03-16T13:00:12.088Z,12.70
2018-03-16T13:02:40.337Z,12.60
2018-03-16T13:05:09.313Z,12.50
2018-03-16T13:07:37.594Z,12.30
2018-03-16T13:10:05.837Z,12.30
2018-03-16T13:12:34.073Z,12.30
2018-03-16T13:15:02.573Z,12.30
2018-03-16T13:17:30.911Z,12.30
2018-03-16T13:19:59.921Z,12.10
2018-03-16T13:22:28.190Z,12.10
2018-03-16T13:24:56.741Z,12.00
2018-03-16T13:27:25.050Z,12.00
2018-03-16T13:29:53.278Z,11.90
2018-03-16T13:32:21.666Z,11.90
2018-03-16T13:34:49.899Z,11.80
2018-03-16T13:37:18.606Z,11.80
2018-03-16T13:39:46.837Z,11.80
2018-03-16T13:42:15.081Z,11.80
2018-03-16T13:44:43.348Z,11.80
2018-03-16T13:47:11.618Z,11.90
2018-03-16T13:49:39.838Z,12.00
2018-03-16T13:52:08.865Z,12.30
2018-03-16T13:54:37.110Z,12.30
2018-03-16T13:57:05.351Z,12.40
2018-03-16T13:59:33.665Z,12.60
2018-03-16T14:02:02.719Z,12.80
2018-03-16T14:04:30.947Z,12.80
2018-03-16T14:06:59.718Z,12.90
2018-03-16T14:09:28.717Z,13.00
2018-03-16T14:11:57.733Z,13.20
2018-03-16T14:14:25.998Z,13.20
2018-03-16T14:16:54.237Z,13.70
2018-03-16T14:19:22.490Z,14.40
2018-03-16T14:21:51.261Z,15.00
2018-03-16T14:24:19.506Z,15.30
2018-03-16T14:26:47.742Z,15.20
2018-03-16T14:29:16.004Z,14.80
2018-03-16T14:31:44.249Z,14.40
2018-03-16T14:34:12.513Z,14.10
2018-03-16T14:36:41.542Z,13.80
2018-03-16T14:39:09.782Z,13.80
2018-03-16T14:41:38.025Z,13.90
2018-03-16T14:44:07.161Z,14.00
2018-03-16T14:46:35.593Z,13.90
2018-03-16T14:49:03.833Z,13.70
2018-03-16T14:51:32.106Z,13.40
2018-03-16T14:54:00.554Z,13.40
2018-03-16T14:56:28.774Z,13.30
2018-03-16T14:58:57.046Z,13.20
2018-03-16T15:01:25.286Z,13.20
2018-03-16T15:03:53.768Z,13.10
2018-03-16T15:06:23.186Z,13.00
2018-03-16T15:08:51.685Z,13.00
2018-03-16T15:11:19.929Z,12.90
2018-03-16T15:13:48.230Z,12.90
2018-03-16T15:16:16.424Z,12.90
2018-03-16T15:18:44.676Z,12.80
2018-03-16T15:21:12.937Z,12.80
2018-03-16T15:23:41.177Z,12.70
2018-03-16T15:26:09.428Z,12.70
2018-03-16T15:28:37.834Z,12.70
2018-03-16T15:31:06.316Z,12.60
2018-03-16T15:33:34.544Z,12.60
2018-03-16T15:36:03.565Z,12.70
2018-03-16T15:38:31.806Z,12.70
2018-03-16T15:41:00.046Z,12.70
2018-03-16T15:43:28.314Z,12.70
2018-03-16T15:45:56.561Z,12.70
2018-03-16T15:48:24.858Z,12.70
2018-03-16T15:50:53.847Z,12.70
2018-03-16T15:53:22.138Z,12.70
2018-03-16T15:55:50.522Z,12.60
2018-03-16T15:58:18.813Z,12.50
2018-03-16T16:00:47.049Z,12.50
2018-03-16T16:03:15.290Z,12.50
2018-03-16T16:05:43.778Z,12.50
2018-03-16T16:08:12.791Z,12.50
2018-03-16T16:10:41.444Z,12.50
2018-03-16T16:13:12.017Z,12.50
2018-03-16T16:15:40.262Z,12.50
2018-03-16T16:18:08.706Z,12.50
2018-03-16T16:20:37.115Z,12.50
2018-03-16T16:23:07.299Z,12.40
2018-03-16T16:25:35.690Z,12.40
2018-03-16T16:28:03.962Z,12.40
2018-03-16T16:30:32.206Z,12.30
2018-03-16T16:33:00.446Z,12.30
2018-03-16T16:35:28.969Z,12.30
2018-03-16T16:37:57.217Z,12.30
2018-03-16T16:40:26.273Z,12.40
2018-03-16T16:42:54.548Z,12.40
2018-03-16T16:45:22.812Z,12.40
2018-03-16T16:47:51.046Z,12.30
2018-03-16T16:50:19.368Z,12.30
2018-03-16T16:52:48.781Z,12.30
2018-03-16T16:55:18.142Z,12.20
2018-03-16T16:57:46.845Z,12.10
2018-03-16T17:00:15.141Z,12.10
2018-03-16T17:02:43.730Z,12.10
2018-03-16T17:05:13.150Z,12.10
2018-03-16T17:07:41.505Z,12.20
2018-03-16T17:10:09.740Z,12.20
2018-03-16T17:12:38.322Z,12.10
2018-03-16T17:15:07.153Z,12.10
2018-03-16T17:17:35.425Z,12.10
2018-03-16T17:20:04.709Z,12.00
2018-03-16T17:22:33.018Z,12.00
2018-03-16T17:25:01.283Z,11.90
2018-03-16T17:27:29.811Z,11.90
2018-03-16T17:29:58.041Z,11.90
2018-03-16T17:32:26.284Z,11.90
2018-03-16T17:34:54.807Z,11.80
2018-03-16T17:37:23.039Z,11.70
2018-03-16T17:39:51.507Z,11.60
2018-03-16T17:42:20.126Z,11.50
2018-03-16T17:44:48.429Z,11.50
2018-03-16T17:47:16.669Z,11.50
2018-03-16T17:49:47.068Z,11.50
2018-03-16T17:52:17.257Z,11.40
2018-03-16T17:54:45.634Z,11.40
2018-03-16T17:57:13.901Z,11.40
2018-03-16T17:59:42.587Z,11.60
2018-03-16T18:02:10.808Z,11.60
2018-03-16T18:04:40.025Z,11.60
2018-03-16T18:07:08.269Z,11.60
2018-03-16T18:09:36.513Z,11.60
2018-03-16T18:12:04.773Z,11.70
2018-03-16T18:14:33.016Z,11.70
2018-03-16T18:17:02.022Z,11.60
2018-03-16T18:19:30.277Z,11.60
2018-03-16T18:21:58.717Z,11.50
2018-03-16T18:24:27.113Z,11.50
2018-03-16T18:26:55.562Z,11.40
2018-03-16T18:29:23.895Z,11.40
2018-03-16T18:31:53.057Z,11.40
2018-03-16T18:34:22.486Z,11.40
2018-03-16T18:36:52.209Z,11.30
2018-03-16T18:39:21.262Z,11.20
2018-03-16T18:41:49.510Z,11.20
2018-03-16T18:44:17.836Z,11.10
2018-03-16T18:46:46.114Z,11.00
2018-03-16T18:49:14.670Z,10.90
2018-03-16T18:51:42.976Z,10.90
2018-03-16T18:54:11.210Z,10.90
2018-03-16T18:56:39.482Z,10.90
2018-03-16T18:59:07.726Z,10.90
2018-03-16T19:01:36.778Z,10.70
2018-03-16T19:04:05.037Z,10.70
2018-03-16T19:06:33.279Z,10.60
2018-03-16T19:09:02.287Z,10.50
2018-03-16T19:11:30.683Z,10.50
2018-03-16T19:13:59.002Z,10.50
2018-03-16T19:16:27.257Z,10.40
2018-03-16T19:18:56.687Z,10.20
2018-03-16T19:21:24.926Z,10.20
2018-03-16T19:23:54.343Z,10.10
2018-03-16T19:26:22.604Z,10.10
2018-03-16T19:28:52.044Z,10.10
2018-03-16T19:31:20.285Z,10.00
2018-03-16T19:33:48.867Z,10.00
2018-03-16T19:36:17.112Z,9.90
2018-03-16T19:38:45.342Z,9.80
2018-03-16T19:41:13.593Z,9.70
2018-03-16T19:43:41.840Z,9.70
2018-03-16T19:46:10.146Z,9.80
2018-03-16T19:48:38.467Z,9.70
2018-03-16T19:51:06.657Z,9.50
2018-03-16T19:53:35.096Z,9.30
2018-03-16T19:56:03.458Z,9.20
2018-03-16T19:58:31.694Z,9.10
2018-03-16T20:01:00.699Z,9.10
2018-03-16T20:03:29.718Z,8.90
2018-03-16T20:05:57.957Z,8.90
2018-03-16T20:08:26.393Z,8.90
2018-03-16T20:10:54.654Z,8.70
2018-03-16T20:13:24.075Z,8.70
2018-03-16T20:15:52.314Z,8.70
2018-03-16T20:18:20.917Z,8.80
2018-03-16T20:20:49.150Z,8.80
2018-03-16T20:23:18.514Z,8.70
2018-03-16T20:25:46.770Z,8.60
2018-03-16T20:28:15.038Z,8.50
2018-03-16T20:30:43.345Z,8.40
2018-03-16T20:33:11.616Z,8.40
2018-03-16T20:35:39.842Z,8.30
2018-03-16T20:38:08.848Z,8.20
2018-03-16T20:40:38.001Z,8.30
2018-03-16T20:43:06.233Z,8.30
2018-03-16T20:45:34.502Z,8.30
2018-03-16T20:48:02.991Z,8.40
2018-03-16T20:50:31.977Z,8.30
2018-03-16T20:53:00.293Z,8.30
2018-03-16T20:55:28.578Z,8.20
2018-03-16T20:57:56.813Z,8.20
2018-03-16T21:00:25.093Z,8.20
2018-03-16T21:02:53.585Z,8.10
2018-03-16T21:05:22.805Z,8.00
2018-03-16T21:07:51.186Z,7.80
2018-03-16T21:10:19.610Z,7.60
2018-03-16T21:12:48.616Z,7.60
2018-03-16T21:15:17.141Z,7.60
2018-03-16T21:17:45.428Z,7.60
2018-03-16T21:20:15.853Z,7.70
2018-03-16T21:22:44.102Z,7.60
2018-03-16T21:25:12.563Z,7.50
2018-03-16T21:27:40.999Z,7.40
2018-03-16T21:30:09.260Z,7.40
2018-03-16T21:32:37.513Z,7.30
2018-03-16T21:35:05.826Z,7.20
2018-03-16T21:37:34.066Z,7.20
2018-03-16T21:40:02.673Z,7.20
2018-03-16T21:42:30.912Z,7.20
2018-03-16T21:44:59.149Z,7.30
2018-03-16T21:47:28.714Z,7.30
2018-03-16T21:49:56.975Z,7.30
2018-03-16T21:52:25.398Z,7.20
2018-03-16T21:54:53.805Z,7.20
2018-03-16T21:57:22.965Z,7.10
2018-03-16T21:59:51.203Z,7.10
2018-03-16T22:02:19.474Z,7.20
2018-03-16T22:04:47.717Z,7.10
2018-03-16T22:07:15.975Z,7.10
2018-03-16T22:09:44.450Z,7.10
2018-03-16T22:12:12.690Z,7.10
2018-03-16T22:14:40.953Z,7.10
2018-03-16T22:17:09.225Z,7.10
2018-03-16T22:19:38.522Z,7.10
2018-03-16T22:22:07.547Z,7.10
2018-03-16T22:24:35.798Z,7.10
2018-03-16T22:27:04.039Z,7.20
2018-03-16T22:29:32.281Z,7.20
2018-03-16T22:32:00.779Z,7.10
2018-03-16T22:34:29.032Z,7.00
2018-03-16T22:36:57.272Z,7.00
2018-03-16T22:39:25.551Z,7.00
2018-03-16T22:41:54.622Z,6.70
2018-03-16T22:44:22.853Z,6.60
2018-03-16T22:46:51.299Z,6.60
2018-03-16T22:49:20.332Z,6.80
2018-03-16T22:51:48.848Z,6.70
2018-03-16T22:54:17.446Z,6.70
2018-03-16T22:56:45.709Z,6.60
2018-03-16T22:59:13.966Z,6.60
2018-03-16T23:01:42.240Z,6.70
2018-03-16T23:04:10.612Z,6.80
2018-03-16T23:06:38.849Z,6.80
2018-03-16T23:09:07.126Z,6.80
2018-03-16T23:11:35.371Z,6.70
2018-03-16T23:14:04.565Z,6.70
2018-03-16T23:16:33.134Z,6.70
2018-03-16T23:19:01.402Z,6.60
2018-03-16T23:21:30.145Z,6.70
2018-03-16T23:23:59.310Z,6.60
2018-03-16T23:26:27.546Z,6.60
2018-03-16T23:28:55.799Z,6.50
2018-03-16T23:31:24.057Z,6.60
2018-03-16T23:33:52.298Z,6.60
2018-03-16T23:36:20.708Z,6.60
2018-03-16T23:38:49.484Z,6.50
2018-03-16T23:41:17.758Z,6.50
2018-03-16T23:43:46.003Z,6.60
2018-03-16T23:46:14.394Z,6.60
2018-03-16T23:48:42.621Z,6.50
2018-03-16T23:51:11.788Z,6.50
2018-03-16T23:53:40.044Z,6.50
2018-03-16T23:56:08.315Z,6.40
2018-03-16T23:58:36.729Z,6.40
